createdAt,value
2017-11-23T00:01:19.574Z,14.00
2017-11-23T00:03:47.703Z,14.68
2017-11-23T00:06:15.859Z,14.52
2017-11-23T00:08:43.995Z,15.63
2017-11-23T00:11:12.148Z,15.13
2017-11-23T00:13:40.278Z,15.07
2017-11-23T00:16:08.430Z,13.80
2017-11-23T00:18:36.562Z,14.32
2017-11-23T00:21:04.728Z,14.18
2017-11-23T00:23:32.869Z,13.98
2017-11-23T00:26:01.022Z,14.35
2017-11-23T00:28:29.158Z,14.50
2017-11-23T00:30:57.322Z,13.15
2017-11-23T00:33:25.455Z,13.60
2017-11-23T00:35:53.591Z,14.43
2017-11-23T00:38:22.514Z,12.57
2017-11-23T00:40:50.648Z,11.95
2017-11-23T00:43:19.567Z,13.32
2017-11-23T00:45:47.695Z,13.70
2017-11-23T00:48:15.851Z,13.45
2017-11-23T00:50:43.979Z,13.00
2017-11-23T00:53:12.138Z,12.73
2017-11-23T00:55:40.266Z,13.05
2017-11-23T00:58:08.427Z,13.32
2017-11-23T01:00:36.559Z,13.05
2017-11-23T01:03:04.718Z,12.30
2017-11-23T01:05:32.843Z,12.35
2017-11-23T01:08:01.001Z,13.88
2017-11-23T01:10:29.135Z,12.88
2017-11-23T01:12:57.294Z,12.80
2017-11-23T01:15:25.426Z,12.32
2017-11-23T01:17:53.578Z,12.32
2017-11-23T01:20:21.710Z,13.45
2017-11-23T01:22:49.876Z,12.10
2017-11-23T01:25:18.020Z,11.30
2017-11-23T01:27:46.187Z,12.15
2017-11-23T01:30:14.320Z,13.32
2017-11-23T01:32:42.480Z,11.20
2017-11-23T01:35:10.612Z,13.60
2017-11-23T01:37:38.772Z,11.20
2017-11-23T01:40:06.904Z,10.80
2017-11-23T01:42:35.061Z,14.38
2017-11-23T01:45:03.196Z,12.57
2017-11-23T01:47:31.359Z,12.02
2017-11-23T01:49:59.495Z,11.70
2017-11-23T01:52:27.655Z,13.00
2017-11-23T01:54:55.810Z,12.00
2017-11-23T01:57:23.939Z,11.48
2017-11-23T01:59:52.948Z,10.38
2017-11-23T02:02:21.083Z,10.20
2017-11-23T02:04:49.244Z,11.05
2017-11-23T02:07:17.379Z,10.55
2017-11-23T02:09:45.539Z,9.88
2017-11-23T02:12:14.428Z,9.32
2017-11-23T02:14:42.586Z,10.45
2017-11-23T02:17:11.489Z,10.02
2017-11-23T02:19:39.642Z,9.63
2017-11-23T02:22:07.778Z,12.65
2017-11-23T02:24:35.934Z,10.05
2017-11-23T02:27:04.067Z,10.57
2017-11-23T02:29:32.221Z,9.07
2017-11-23T02:32:00.347Z,9.60
2017-11-23T02:34:28.506Z,11.45
2017-11-23T02:36:57.406Z,10.00
2017-11-23T02:39:25.570Z,8.93
2017-11-23T02:41:53.700Z,10.10
2017-11-23T02:44:21.844Z,9.45
2017-11-23T02:46:50.018Z,8.95
2017-11-23T02:49:18.151Z,9.50
2017-11-23T02:51:46.307Z,11.12
2017-11-23T02:54:14.435Z,10.82
2017-11-23T02:56:42.635Z,10.70
2017-11-23T02:59:10.762Z,10.73
2017-11-23T03:01:38.910Z,9.75
2017-11-23T03:04:07.043Z,10.38
2017-11-23T03:06:35.198Z,9.85
2017-11-23T03:09:03.332Z,9.27
2017-11-23T03:11:31.482Z,9.77
2017-11-23T03:13:59.619Z,10.85
2017-11-23T03:16:27.786Z,9.38
2017-11-23T03:18:55.917Z,10.10
2017-11-23T03:21:24.069Z,9.90
2017-11-23T03:23:52.205Z,9.40
2017-11-23T03:26:20.365Z,10.15
2017-11-23T03:28:49.255Z,10.48
2017-11-23T03:31:18.272Z,9.43
2017-11-23T03:33:46.398Z,9.90
2017-11-23T03:36:14.556Z,10.50
2017-11-23T03:38:42.684Z,9.65
2017-11-23T03:41:10.848Z,10.45
2017-11-23T03:43:38.980Z,10.57
2017-11-23T03:46:07.154Z,9.73
2017-11-23T03:48:35.300Z,8.68
2017-11-23T03:51:03.433Z,10.77
2017-11-23T03:53:31.583Z,9.82
2017-11-23T03:55:59.706Z,8.57
2017-11-23T03:58:27.862Z,9.77
2017-11-23T04:00:55.990Z,7.80
2017-11-23T04:03:24.155Z,8.90
2017-11-23T04:05:52.280Z,7.85
2017-11-23T04:08:20.430Z,8.48
2017-11-23T04:10:48.545Z,7.50
2017-11-23T04:13:16.698Z,9.38
2017-11-23T04:15:44.816Z,7.22
2017-11-23T04:18:12.974Z,7.87
2017-11-23T04:23:15.639Z,8.15
2017-11-23T04:25:43.766Z,7.62
2017-11-23T04:28:11.926Z,6.78
2017-11-23T04:30:40.042Z,6.30
2017-11-23T04:33:08.963Z,7.97
2017-11-23T04:35:37.082Z,6.85
2017-11-23T04:38:05.235Z,6.20
2017-11-23T04:40:33.360Z,6.20
2017-11-23T04:43:01.502Z,6.82
2017-11-23T04:45:29.627Z,7.82
2017-11-23T04:47:57.748Z,5.95
2017-11-23T04:50:25.894Z,7.37
2017-11-23T04:52:54.014Z,6.93
2017-11-23T04:55:22.157Z,5.78
2017-11-23T04:57:50.292Z,7.03
2017-11-23T05:00:18.444Z,6.07
2017-11-23T05:02:47.328Z,7.07
2017-11-23T05:05:15.470Z,7.05
2017-11-23T05:07:43.593Z,5.45
2017-11-23T05:10:11.753Z,7.30
2017-11-23T05:12:39.870Z,7.30
2017-11-23T05:15:08.018Z,7.35
2017-11-23T05:17:36.143Z,6.75
2017-11-23T05:20:04.292Z,6.35
2017-11-23T05:22:32.410Z,6.75
2017-11-23T05:25:00.562Z,7.28
2017-11-23T05:27:28.704Z,7.40
2017-11-23T05:29:56.855Z,6.40
2017-11-23T05:32:24.987Z,6.00
2017-11-23T05:34:53.142Z,5.65
2017-11-23T05:37:21.263Z,5.22
2017-11-23T05:39:49.386Z,5.75
2017-11-23T05:42:17.530Z,6.70
2017-11-23T05:44:45.659Z,5.70
2017-11-23T05:47:13.806Z,6.12
2017-11-23T05:49:41.935Z,5.15
2017-11-23T05:52:10.082Z,4.75
2017-11-23T05:54:38.208Z,5.95
2017-11-23T05:57:06.363Z,5.57
2017-11-23T05:59:34.482Z,5.28
2017-11-23T06:02:02.636Z,5.25
2017-11-23T06:04:30.765Z,5.85
2017-11-23T06:06:58.928Z,5.05
2017-11-23T06:09:27.047Z,5.10
2017-11-23T06:11:55.195Z,5.90
2017-11-23T06:14:23.326Z,6.03
2017-11-23T06:16:51.478Z,5.90
2017-11-23T06:19:19.604Z,5.00
2017-11-23T06:21:47.762Z,5.22
2017-11-23T06:24:15.883Z,6.10
2017-11-23T06:26:44.032Z,5.68
2017-11-23T06:29:12.160Z,4.80
2017-11-23T06:31:40.306Z,6.50
2017-11-23T06:34:08.553Z,5.10
2017-11-23T06:36:36.706Z,5.12
2017-11-23T06:39:04.852Z,5.28
2017-11-23T06:41:33.018Z,5.32
2017-11-23T06:44:01.414Z,5.35
2017-11-23T06:46:29.546Z,5.12
2017-11-23T06:48:57.702Z,4.85
2017-11-23T06:51:25.827Z,5.43
2017-11-23T06:53:53.978Z,6.25
2017-11-23T06:56:22.107Z,6.15
2017-11-23T06:58:51.038Z,5.65
2017-11-23T07:01:19.156Z,6.15
2017-11-23T07:03:47.309Z,6.10
2017-11-23T07:06:15.427Z,5.93
2017-11-23T07:08:43.579Z,7.10
2017-11-23T07:11:11.712Z,5.97
2017-11-23T07:13:39.855Z,5.93
2017-11-23T07:16:07.973Z,5.37
2017-11-23T07:18:36.124Z,5.43
2017-11-23T07:21:04.250Z,5.93
2017-11-23T07:23:32.405Z,5.70
2017-11-23T07:26:00.522Z,5.32
2017-11-23T07:28:29.462Z,4.65
2017-11-23T07:30:57.590Z,5.20
2017-11-23T07:33:25.754Z,5.62
2017-11-23T07:35:53.874Z,5.47
2017-11-23T07:38:22.018Z,5.15
2017-11-23T07:40:50.143Z,6.75
2017-11-23T07:43:18.300Z,5.47
2017-11-23T07:45:46.415Z,5.20
2017-11-23T07:48:14.689Z,6.12
2017-11-23T07:50:43.689Z,5.18
2017-11-23T07:53:11.842Z,4.75
2017-11-23T07:55:40.004Z,4.45
2017-11-23T07:58:08.126Z,4.75
2017-11-23T08:00:36.455Z,5.60
2017-11-23T08:03:04.579Z,4.60
2017-11-23T08:05:32.735Z,5.12
2017-11-23T08:08:00.862Z,4.80
2017-11-23T08:10:29.015Z,4.95
2017-11-23T08:12:57.133Z,4.60
2017-11-23T08:15:25.278Z,4.85
2017-11-23T08:17:53.407Z,4.53
2017-11-23T08:20:21.579Z,3.78
2017-11-23T08:22:49.695Z,4.82
2017-11-23T08:25:17.845Z,4.50
2017-11-23T08:27:45.970Z,4.62
2017-11-23T08:30:14.883Z,4.70
2017-11-23T08:32:43.018Z,3.87
2017-11-23T08:35:11.165Z,4.55
2017-11-23T08:37:39.291Z,3.90
2017-11-23T08:40:07.438Z,4.22
2017-11-23T08:42:35.553Z,4.60
2017-11-23T08:45:03.721Z,4.37
2017-11-23T08:47:32.603Z,3.75
2017-11-23T08:50:00.752Z,4.93
2017-11-23T08:52:33.727Z,4.20
2017-11-23T08:55:01.872Z,3.47
2017-11-23T08:57:29.992Z,3.87
2017-11-23T08:59:58.142Z,3.75
2017-11-23T09:02:26.270Z,4.30
2017-11-23T09:04:54.409Z,3.78
2017-11-23T09:07:22.535Z,4.43
2017-11-23T09:09:50.690Z,4.05
2017-11-23T09:12:21.618Z,3.42
2017-11-23T09:14:49.766Z,4.95
2017-11-23T09:17:17.890Z,3.80
2017-11-23T09:19:46.045Z,3.95
2017-11-23T09:22:14.165Z,3.92
2017-11-23T09:24:42.314Z,4.25
2017-11-23T09:27:10.434Z,4.15
2017-11-23T09:29:39.368Z,5.43
2017-11-23T09:32:07.499Z,4.60
2017-11-23T09:34:35.655Z,3.53
2017-11-23T09:37:03.777Z,4.05
2017-11-23T09:39:32.006Z,3.03
2017-11-23T09:42:00.131Z,3.97
2017-11-23T09:44:28.299Z,4.35
2017-11-23T09:46:56.476Z,4.72
2017-11-23T09:49:24.631Z,4.28
2017-11-23T09:51:53.527Z,3.70
2017-11-23T09:54:21.675Z,3.40
2017-11-23T09:56:49.804Z,4.57
2017-11-23T09:59:17.975Z,4.22
2017-11-23T10:01:46.099Z,4.30
2017-11-23T10:04:14.297Z,4.60
2017-11-23T10:06:42.417Z,3.75
2017-11-23T10:09:10.550Z,4.22
2017-11-23T10:11:38.697Z,4.05
2017-11-23T10:14:12.516Z,3.60
2017-11-23T10:16:40.667Z,4.28
2017-11-23T10:19:08.786Z,3.97
2017-11-23T10:21:37.246Z,4.10
2017-11-23T10:24:05.395Z,4.53
2017-11-23T10:26:33.554Z,3.90
2017-11-23T10:29:01.693Z,3.45
2017-11-23T10:31:29.848Z,3.97
2017-11-23T10:33:57.988Z,3.90
2017-11-23T10:36:26.151Z,4.30
2017-11-23T10:38:54.289Z,4.20
2017-11-23T10:41:22.739Z,4.07
2017-11-23T10:43:50.876Z,3.83
2017-11-23T10:46:19.052Z,3.70
2017-11-23T10:48:47.186Z,4.47
2017-11-23T10:51:15.359Z,4.43
2017-11-23T10:53:43.498Z,3.72
2017-11-23T10:56:12.456Z,3.72
2017-11-23T10:58:40.574Z,4.22
2017-11-23T11:01:08.746Z,4.05
2017-11-23T11:03:36.874Z,4.30
2017-11-23T11:06:05.047Z,3.33
2017-11-23T11:08:33.224Z,4.97
2017-11-23T11:11:01.402Z,4.72
2017-11-23T11:13:29.526Z,3.60
2017-11-23T11:15:57.679Z,4.55
2017-11-23T11:18:25.805Z,5.28
2017-11-23T11:20:53.986Z,3.78
2017-11-23T11:23:22.128Z,4.12
2017-11-23T11:25:50.272Z,3.90
2017-11-23T11:28:18.504Z,4.00
2017-11-23T11:30:46.695Z,5.03
2017-11-23T11:33:14.891Z,3.80
2017-11-23T11:35:43.042Z,4.35
2017-11-23T11:38:11.197Z,4.18
2017-11-23T11:40:39.338Z,4.45
2017-11-23T11:43:07.904Z,4.60
2017-11-23T11:45:36.801Z,4.78
2017-11-23T11:48:04.972Z,4.82
2017-11-23T11:50:33.863Z,3.85
2017-11-23T11:53:02.024Z,5.68
2017-11-23T11:55:31.027Z,4.55
2017-11-23T12:00:34.215Z,4.50
2017-11-23T12:03:02.374Z,4.20
2017-11-23T12:05:30.512Z,4.40
2017-11-23T12:07:58.678Z,4.20
2017-11-23T12:10:26.806Z,5.20
2017-11-23T12:12:55.744Z,4.68
2017-11-23T12:15:33.707Z,4.85
2017-11-23T12:18:14.459Z,3.80
2017-11-23T12:20:54.334Z,4.68
2017-11-23T12:23:34.330Z,4.20
2017-11-23T12:26:02.464Z,4.78
2017-11-23T12:28:42.410Z,4.65
2017-11-23T12:31:10.537Z,4.47
2017-11-23T12:33:38.692Z,3.20
2017-11-23T12:36:06.815Z,4.40
2017-11-23T12:38:34.968Z,5.78
2017-11-23T12:41:03.096Z,4.95
2017-11-23T12:43:31.252Z,4.40
2017-11-23T12:45:59.391Z,5.40
2017-11-23T12:48:27.547Z,4.70
2017-11-23T12:50:55.691Z,4.60
2017-11-23T12:53:23.846Z,5.03
2017-11-23T12:55:51.982Z,4.85
2017-11-23T12:58:20.141Z,3.62
2017-11-23T13:00:48.272Z,4.53
2017-11-23T13:03:16.436Z,5.57
2017-11-23T13:05:45.326Z,5.40
2017-11-23T13:08:13.482Z,5.53
2017-11-23T13:10:41.620Z,5.22
2017-11-23T13:13:09.783Z,4.35
2017-11-23T13:15:37.950Z,4.65
2017-11-23T13:18:06.075Z,4.43
2017-11-23T13:20:34.239Z,4.90
2017-11-23T13:23:02.363Z,3.70
2017-11-23T13:25:30.530Z,4.85
2017-11-23T13:27:58.658Z,4.87
2017-11-23T13:30:26.821Z,3.70
2017-11-23T13:32:54.947Z,4.62
2017-11-23T13:35:23.101Z,5.22
2017-11-23T13:37:51.231Z,4.72
2017-11-23T13:40:19.385Z,8.63
2017-11-23T13:42:47.507Z,4.05
2017-11-23T13:45:15.666Z,4.82
2017-11-23T13:47:43.798Z,3.60
2017-11-23T13:50:11.953Z,5.00
2017-11-23T13:52:40.079Z,4.78
2017-11-23T13:55:08.242Z,4.12
2017-11-23T13:57:36.379Z,4.57
2017-11-23T14:00:04.542Z,4.80
2017-11-23T14:02:32.666Z,4.50
2017-11-23T14:05:00.829Z,4.57
2017-11-23T14:07:28.984Z,4.37
2017-11-23T14:09:57.139Z,4.60
2017-11-23T14:12:25.274Z,4.18
2017-11-23T14:14:53.437Z,3.92
2017-11-23T14:17:21.569Z,4.68
2017-11-23T14:19:49.727Z,4.15
2017-11-23T14:22:17.880Z,4.12
2017-11-23T14:24:46.061Z,4.32
2017-11-23T14:27:14.207Z,4.90
2017-11-23T14:29:42.384Z,4.72
2017-11-23T14:32:10.524Z,4.37
2017-11-23T14:34:38.715Z,5.78
2017-11-23T14:37:06.858Z,4.18
2017-11-23T14:39:35.018Z,4.57
2017-11-23T14:42:03.906Z,4.43
2017-11-23T14:44:32.053Z,4.60
2017-11-23T14:47:00.210Z,4.53
2017-11-23T14:49:28.335Z,4.15
2017-11-23T14:51:56.485Z,4.50
2017-11-23T14:54:24.611Z,4.22
2017-11-23T14:56:52.999Z,4.57
2017-11-23T14:59:21.198Z,4.80
2017-11-23T15:01:49.359Z,5.05
2017-11-23T15:04:17.496Z,5.03
2017-11-23T15:06:45.958Z,4.10
2017-11-23T15:09:14.884Z,7.15
2017-11-23T15:11:43.056Z,5.93
2017-11-23T15:14:11.399Z,5.05
2017-11-23T15:16:40.434Z,5.00
2017-11-23T15:19:08.690Z,4.22
2017-11-23T15:21:36.842Z,4.05
2017-11-23T15:24:05.732Z,4.60
2017-11-23T15:26:33.900Z,4.75
2017-11-23T15:29:03.068Z,4.93
2017-11-23T15:31:31.223Z,5.40
2017-11-23T15:33:59.351Z,4.75
2017-11-23T15:36:28.271Z,4.75
2017-11-23T15:38:56.394Z,4.30
2017-11-23T15:41:24.551Z,5.20
2017-11-23T15:43:52.674Z,4.57
2017-11-23T15:46:20.849Z,4.30
2017-11-23T15:48:48.980Z,4.35
2017-11-23T15:51:17.103Z,4.10
2017-11-23T15:53:45.255Z,5.40
2017-11-23T15:56:13.387Z,4.25
2017-11-23T15:58:41.551Z,4.35
2017-11-23T16:01:09.691Z,4.40
2017-11-23T16:03:37.851Z,6.20
2017-11-23T16:06:06.012Z,4.15
2017-11-23T16:08:34.171Z,4.30
2017-11-23T16:11:02.322Z,3.90
2017-11-23T16:13:30.611Z,3.75
2017-11-23T16:15:58.736Z,4.80
2017-11-23T16:18:26.896Z,4.47
2017-11-23T16:20:55.035Z,4.22
2017-11-23T16:23:23.190Z,4.97
2017-11-23T16:25:51.338Z,5.07
2017-11-23T16:28:19.495Z,4.25
2017-11-23T16:30:47.615Z,4.65
2017-11-23T16:33:15.780Z,4.55
2017-11-23T16:35:43.910Z,4.07
2017-11-23T16:41:25.399Z,5.00
2017-11-23T16:43:54.474Z,4.72
2017-11-23T16:46:40.395Z,4.32
2017-11-23T16:49:14.864Z,5.35
2017-11-23T16:51:57.602Z,4.18
2017-11-23T16:54:31.489Z,4.55
2017-11-23T16:57:06.146Z,4.90
2017-11-23T16:59:40.110Z,4.85
2017-11-23T17:02:13.821Z,4.62
2017-11-23T17:04:47.545Z,4.70
2017-11-23T17:07:21.277Z,4.55
2017-11-23T17:09:53.121Z,5.12
2017-11-23T17:12:37.058Z,4.40
2017-11-23T17:15:20.931Z,4.93
2017-11-23T17:17:49.064Z,4.40
2017-11-23T17:20:17.231Z,5.07
2017-11-23T17:22:45.376Z,4.97
2017-11-23T17:25:13.540Z,5.20
2017-11-23T17:27:41.672Z,5.80
2017-11-23T17:30:09.835Z,4.40
2017-11-23T17:32:38.664Z,4.80
2017-11-23T17:35:06.840Z,5.68
2017-11-23T17:37:35.774Z,5.90
2017-11-23T17:40:04.792Z,6.00
2017-11-23T17:42:33.678Z,6.18
2017-11-23T17:45:01.981Z,5.22
2017-11-23T17:47:30.157Z,5.07
2017-11-23T17:49:58.412Z,4.80
2017-11-23T17:52:26.705Z,5.93
2017-11-23T17:54:55.308Z,5.30
2017-11-23T17:57:23.845Z,5.60
2017-11-23T17:59:52.144Z,6.25
2017-11-23T18:02:20.678Z,6.12
2017-11-23T18:04:49.537Z,5.57
2017-11-23T18:07:17.737Z,6.05
2017-11-23T18:09:45.915Z,5.15
2017-11-23T18:12:14.129Z,5.05
2017-11-23T18:14:43.005Z,4.70
2017-11-23T18:17:11.886Z,5.43
2017-11-23T18:19:40.062Z,4.30
2017-11-23T18:22:08.233Z,5.53
2017-11-23T18:24:36.412Z,5.32
2017-11-23T18:27:04.581Z,5.20
2017-11-23T18:29:33.108Z,4.45
2017-11-23T18:32:01.773Z,5.55
2017-11-23T18:34:31.138Z,6.12
2017-11-23T18:36:59.754Z,5.25
2017-11-23T18:39:28.543Z,5.00
2017-11-23T18:41:57.121Z,5.00
2017-11-23T18:44:25.815Z,4.22
2017-11-23T18:46:55.103Z,4.32
2017-11-23T18:49:24.804Z,5.05
2017-11-23T18:51:53.389Z,4.72
2017-11-23T18:54:22.077Z,4.72
2017-11-23T18:56:50.932Z,4.37
2017-11-23T18:59:19.621Z,5.20
2017-11-23T19:01:48.350Z,4.28
2017-11-23T19:04:17.016Z,4.32
2017-11-23T19:06:45.518Z,5.32
2017-11-23T19:09:14.140Z,5.10
2017-11-23T19:11:43.293Z,5.18
2017-11-23T19:14:11.936Z,4.45
2017-11-23T19:16:40.510Z,6.12
2017-11-23T19:19:08.844Z,4.12
2017-11-23T19:21:37.023Z,4.90
2017-11-23T19:24:05.161Z,4.50
2017-11-23T19:26:33.408Z,4.00
2017-11-23T19:29:01.567Z,4.80
2017-11-23T19:31:29.728Z,4.00
2017-11-23T19:33:57.888Z,4.03
2017-11-23T19:36:26.083Z,5.20
2017-11-23T19:38:54.217Z,4.40
2017-11-23T19:41:22.444Z,4.75
2017-11-23T19:43:51.728Z,4.50
2017-11-23T19:46:20.741Z,4.65
2017-11-23T19:48:50.229Z,4.82
2017-11-23T19:51:18.362Z,4.40
2017-11-23T19:53:46.514Z,3.85
2017-11-23T19:56:14.665Z,6.03
2017-11-23T19:58:43.599Z,5.40
2017-11-23T20:01:11.743Z,5.40
2017-11-23T20:03:39.910Z,4.30
2017-11-23T20:06:08.039Z,3.90
2017-11-23T20:08:36.239Z,5.43
2017-11-23T20:11:05.134Z,5.43
2017-11-23T20:13:34.062Z,5.15
2017-11-23T20:16:02.211Z,6.35
2017-11-23T20:18:31.130Z,4.43
2017-11-23T20:20:59.287Z,3.53
2017-11-23T20:23:27.452Z,2.92
2017-11-23T20:25:55.592Z,2.30
2017-11-23T20:28:23.762Z,2.20
2017-11-23T20:30:51.907Z,2.10
2017-11-23T20:33:20.088Z,1.90
2017-11-23T20:35:48.323Z,1.25
2017-11-23T20:38:16.515Z,1.58
2017-11-23T20:40:44.718Z,1.50
2017-11-23T20:43:12.884Z,1.65
2017-11-23T20:45:41.018Z,1.60
2017-11-23T20:48:09.215Z,1.45
2017-11-23T20:50:37.394Z,1.40
2017-11-23T20:53:05.542Z,1.17
2017-11-23T20:55:33.703Z,1.30
2017-11-23T20:58:01.835Z,1.52
2017-11-23T21:00:30.033Z,1.20
2017-11-23T21:02:58.158Z,1.45
2017-11-23T21:05:26.309Z,1.90
2017-11-23T21:07:54.450Z,1.08
2017-11-23T21:10:22.609Z,0.93
2017-11-23T21:12:50.738Z,1.12
2017-11-23T21:15:18.894Z,1.52
2017-11-23T21:17:47.045Z,1.27
2017-11-23T21:20:15.221Z,1.20
2017-11-23T21:22:43.360Z,1.05
2017-11-23T21:25:11.540Z,1.00
2017-11-23T21:27:39.684Z,1.50
2017-11-23T21:30:07.844Z,1.15
2017-11-23T21:32:36.011Z,0.85
2017-11-23T21:35:04.212Z,0.80
2017-11-23T21:37:32.347Z,1.33
2017-11-23T21:40:00.543Z,1.00
2017-11-23T21:42:28.691Z,1.08
2017-11-23T21:44:57.611Z,1.10
2017-11-23T21:47:25.745Z,1.00
2017-11-23T21:49:53.903Z,1.08
2017-11-23T21:52:22.029Z,1.15
2017-11-23T21:54:50.176Z,1.05
2017-11-23T21:57:18.315Z,1.20
2017-11-23T21:59:46.482Z,1.17
2017-11-23T22:02:14.603Z,0.85
2017-11-23T22:04:42.778Z,1.30
2017-11-23T22:07:10.926Z,1.52
2017-11-23T22:09:39.060Z,1.12
2017-11-23T22:12:07.256Z,1.23
2017-11-23T22:14:35.421Z,1.00
2017-11-23T22:17:03.574Z,1.42
2017-11-23T22:19:31.708Z,1.23
2017-11-23T22:21:59.871Z,0.75
2017-11-23T22:24:28.017Z,0.98
2017-11-23T22:26:56.173Z,1.17
2017-11-23T22:29:24.326Z,1.27
2017-11-23T22:31:52.475Z,1.30
2017-11-23T22:34:20.664Z,1.00
2017-11-23T22:36:49.589Z,1.20
2017-11-23T22:39:17.751Z,1.40
2017-11-23T22:41:45.908Z,1.05
2017-11-23T22:44:14.071Z,1.20
2017-11-23T22:46:42.223Z,1.25
2017-11-23T22:49:10.367Z,1.62
2017-11-23T22:51:38.563Z,1.77
2017-11-23T22:54:06.721Z,1.58
2017-11-23T22:56:34.901Z,1.95
2017-11-23T22:59:03.045Z,1.80
2017-11-23T23:01:31.257Z,1.40
2017-11-23T23:03:59.391Z,1.37
2017-11-23T23:06:27.566Z,1.55
2017-11-23T23:08:55.690Z,1.60
2017-11-23T23:11:23.867Z,1.60
2017-11-23T23:13:52.000Z,1.23
2017-11-23T23:16:20.156Z,1.30
2017-11-23T23:18:48.291Z,1.30
2017-11-23T23:21:16.448Z,1.50
2017-11-23T23:23:44.575Z,2.58
2017-11-23T23:26:12.732Z,1.60
2017-11-23T23:28:40.872Z,2.15
2017-11-23T23:31:09.026Z,1.75
2017-11-23T23:33:37.155Z,1.48
2017-11-23T23:36:05.303Z,1.60
2017-11-23T23:38:33.454Z,1.40
2017-11-23T23:41:01.581Z,1.40
2017-11-23T23:43:29.740Z,1.67
2017-11-23T23:45:58.622Z,1.50
2017-11-23T23:48:26.763Z,1.60
2017-11-23T23:50:54.888Z,1.50
2017-11-23T23:53:23.049Z,1.70
2017-11-23T23:55:51.176Z,2.10
2017-11-23T23:58:19.340Z,1.37
